sensor_id;sensor_type;location;lat;lon;timestamp;pressure;altitude;pressure_sealevel;temperature;humidity
50087;BME280;35967;50.718;7.050;2023-04-06T00:07:13;101019.34;;;6.00;52.67
50087;BME280;35967;50.718;7.050;2023-04-06T00:17:17;101013.22;;;5.66;55.71
50087;BME280;35967;50.718;7.050;2023-04-06T00:27:20;101003.78;;;5.46;56.97
50087;BME280;35967;50.718;7.050;2023-04-06T00:37:25;101001.16;;;5.29;57.67
50087;BME280;35967;50.718;7.050;2023-04-06T00:47:28;100987.44;;;5.09;58.32
50087;BME280;35967;50.718;7.050;2023-04-06T00:57:33;100968.72;;;5.10;58.29
50087;BME280;35967;50.718;7.050;2023-04-06T01:07:36;100965.31;;;5.11;58.31
50087;BME280;35967;50.718;7.050;2023-04-06T01:17:45;100958.47;;;5.02;57.83
50087;BME280;35967;50.718;7.050;2023-04-06T01:27:51;100944.78;;;4.87;59.12
50087;BME280;35967;50.718;7.050;2023-04-06T01:37:58;100935.13;;;4.41;62.21
50087;BME280;35967;50.718;7.050;2023-04-06T01:48:09;100925.88;;;4.56;60.79
50087;BME280;35967;50.718;7.050;2023-04-06T01:58:12;100920.78;;;4.54;59.37
50087;BME280;35967;50.718;7.050;2023-04-06T02:08:17;100922.31;;;4.32;59.14
50087;BME280;35967;50.718;7.050;2023-04-06T02:18:21;100913.69;;;4.21;59.36
50087;BME280;35967;50.718;7.050;2023-04-06T02:28:25;100906.84;;;4.10;59.57
50087;BME280;35967;50.718;7.050;2023-04-06T02:38:29;100917.59;;;3.82;62.50
50087;BME280;35967;50.718;7.050;2023-04-06T02:48:36;100916.13;;;4.04;60.55
50087;BME280;35967;50.718;7.050;2023-04-06T02:58:40;100915.00;;;3.72;61.33
50087;BME280;35967;50.718;7.050;2023-04-06T03:08:45;100894.03;;;4.03;62.72
50087;BME280;35967;50.718;7.050;2023-04-06T03:18:49;100899.22;;;4.12;60.80
50087;BME280;35967;50.718;7.050;2023-04-06T03:28:54;100898.94;;;3.83;61.91
50087;BME280;35967;50.718;7.050;2023-04-06T03:39:03;100904.56;;;3.51;63.87
50087;BME280;35967;50.718;7.050;2023-04-06T03:49:12;100904.50;;;3.43;62.10
50087;BME280;35967;50.718;7.050;2023-04-06T03:59:20;100898.28;;;3.22;63.20
50087;BME280;35967;50.718;7.050;2023-04-06T04:09:28;100901.00;;;3.35;63.99
50087;BME280;35967;50.718;7.050;2023-04-06T04:19:31;100894.03;;;3.20;63.80
50087;BME280;35967;50.718;7.050;2023-04-06T04:29:36;100903.25;;;3.10;64.70
50087;BME280;35967;50.718;7.050;2023-04-06T04:39:44;100906.47;;;2.96;64.91
50087;BME280;35967;50.718;7.050;2023-04-06T04:49:49;100904.03;;;3.06;64.73
50087;BME280;35967;50.718;7.050;2023-04-06T04:59:56;100904.28;;;3.26;63.24
50087;BME280;35967;50.718;7.050;2023-04-06T05:10:02;100912.19;;;3.47;61.86
50087;BME280;35967;50.718;7.050;2023-04-06T05:20:11;100914.00;;;3.61;61.24
50087;BME280;35967;50.718;7.050;2023-04-06T05:30:23;100920.13;;;3.78;60.88
50087;BME280;35967;50.718;7.050;2023-04-06T05:40:26;100917.53;;;3.74;62.86
50087;BME280;35967;50.718;7.050;2023-04-06T05:50:32;100917.16;;;4.28;64.94
50087;BME280;35967;50.718;7.050;2023-04-06T06:00:35;100915.56;;;4.40;64.59
50087;BME280;35967;50.718;7.050;2023-04-06T06:10:43;100903.88;;;4.67;62.80
50087;BME280;35967;50.718;7.050;2023-04-06T06:20:47;100902.38;;;5.08;57.97
50087;BME280;35967;50.718;7.050;2023-04-06T06:30:52;100900.81;;;5.44;57.09
50087;BME280;35967;50.718;7.050;2023-04-06T06:40:58;100897.47;;;5.73;55.53
50087;BME280;35967;50.718;7.050;2023-04-06T06:51:06;100899.19;;;5.97;54.61
50087;BME280;35967;50.718;7.050;2023-04-06T07:01:14;100883.03;;;6.29;54.81
50087;BME280;35967;50.718;7.050;2023-04-06T07:11:20;100887.22;;;6.80;53.99
50087;BME280;35967;50.718;7.050;2023-04-06T07:21:24;100873.50;;;7.01;52.73
50087;BME280;35967;50.718;7.050;2023-04-06T07:31:29;100872.47;;;7.35;52.57
50087;BME280;35967;50.718;7.050;2023-04-06T07:41:33;100863.72;;;7.71;51.14
50087;BME280;35967;50.718;7.050;2023-04-06T07:51:39;100861.78;;;8.03;51.48
50087;BME280;35967;50.718;7.050;2023-04-06T08:01:42;100859.63;;;8.56;50.80
50087;BME280;35967;50.718;7.050;2023-04-06T08:11:47;100853.44;;;8.74;52.64
50087;BME280;35967;50.718;7.050;2023-04-06T08:21:50;100849.28;;;9.31;50.76
50087;BME280;35967;50.718;7.050;2023-04-06T08:31:56;100835.16;;;9.60;50.23
50087;BME280;35967;50.718;7.050;2023-04-06T08:42:00;100827.88;;;10.40;50.63
50087;BME280;35967;50.718;7.050;2023-04-06T08:52:07;100820.41;;;10.24;49.44
50087;BME280;35967;50.718;7.050;2023-04-06T09:02:17;100822.03;;;10.74;47.38
50087;BME280;35967;50.718;7.050;2023-04-06T09:12:26;100815.56;;;10.98;47.48
50087;BME280;35967;50.718;7.050;2023-04-06T09:22:35;100816.22;;;11.46;46.67
50087;BME280;35967;50.718;7.050;2023-04-06T09:32:48;100811.22;;;11.76;44.26
50087;BME280;35967;50.718;7.050;2023-04-06T09:42:51;100804.78;;;11.58;44.35
50087;BME280;35967;50.718;7.050;2023-04-06T09:52:58;100800.41;;;11.97;40.90
50087;BME280;35967;50.718;7.050;2023-04-06T10:03:08;100800.66;;;12.21;42.36
50087;BME280;35967;50.718;7.050;2023-04-06T10:13:16;100801.69;;;12.45;41.01
50087;BME280;35967;50.718;7.050;2023-04-06T10:23:25;100805.47;;;12.65;41.12
50087;BME280;35967;50.718;7.050;2023-04-06T10:33:31;100796.16;;;12.59;40.32
50087;BME280;35967;50.718;7.050;2023-04-06T10:43:36;100793.59;;;12.58;40.86
50087;BME280;35967;50.718;7.050;2023-04-06T10:53:42;100797.41;;;12.44;40.88
50087;BME280;35967;50.718;7.050;2023-04-06T11:03:47;100781.03;;;12.45;41.10
50087;BME280;35967;50.718;7.050;2023-04-06T11:25:57;100783.25;;;12.59;39.74
50087;BME280;35967;50.718;7.050;2023-04-06T11:36:01;100784.88;;;12.92;39.49
50087;BME280;35967;50.718;7.050;2023-04-06T11:46:06;100772.56;;;13.00;40.22
50087;BME280;35967;50.718;7.050;2023-04-06T11:56:10;100770.09;;;13.25;39.75
50087;BME280;35967;50.718;7.050;2023-04-06T12:06:15;100767.34;;;13.30;38.95
50087;BME280;35967;50.718;7.050;2023-04-06T12:16:18;100761.19;;;13.34;38.93
50087;BME280;35967;50.718;7.050;2023-04-06T12:26:23;100763.03;;;13.31;38.72
50087;BME280;35967;50.718;7.050;2023-04-06T12:36:26;100761.00;;;13.40;38.44
50087;BME280;35967;50.718;7.050;2023-04-06T12:46:31;100756.22;;;13.55;37.55
50087;BME280;35967;50.718;7.050;2023-04-06T12:56:34;100759.78;;;13.24;38.65
50087;BME280;35967;50.718;7.050;2023-04-06T13:06:39;100760.13;;;13.13;40.67
50087;BME280;35967;50.718;7.050;2023-04-06T13:16:42;100774.59;;;12.90;40.75
50087;BME280;35967;50.718;7.050;2023-04-06T13:26:47;100773.41;;;12.72;41.52
50087;BME280;35967;50.718;7.050;2023-04-06T13:36:50;100781.00;;;12.47;42.65
50087;BME280;35967;50.718;7.050;2023-04-06T13:46:56;100782.69;;;12.17;45.11
50087;BME280;35967;50.718;7.050;2023-04-06T13:56:59;100787.59;;;11.91;49.48
50087;BME280;35967;50.718;7.050;2023-04-06T14:07:04;100779.81;;;11.94;50.17
50087;BME280;35967;50.718;7.050;2023-04-06T14:17:10;100782.44;;;11.93;53.25
50087;BME280;35967;50.718;7.050;2023-04-06T14:27:14;100785.19;;;11.85;53.40
50087;BME280;35967;50.718;7.050;2023-04-06T14:37:17;100781.53;;;11.59;57.11
50087;BME280;35967;50.718;7.050;2023-04-06T14:47:24;100785.72;;;11.63;59.55
50087;BME280;35967;50.718;7.050;2023-04-06T14:57:27;100786.69;;;11.23;62.61
50087;BME280;35967;50.718;7.050;2023-04-06T15:07:32;100787.81;;;11.10;65.89
50087;BME280;35967;50.718;7.050;2023-04-06T15:17:35;100778.94;;;10.84;66.71
50087;BME280;35967;50.718;7.050;2023-04-06T15:27:39;100770.66;;;10.69;68.43
50087;BME280;35967;50.718;7.050;2023-04-06T15:37:42;100769.56;;;10.80;72.02
50087;BME280;35967;50.718;7.050;2023-04-06T15:47:47;100768.34;;;10.57;74.33
50087;BME280;35967;50.718;7.050;2023-04-06T15:57:50;100771.59;;;10.20;80.11
50087;BME280;35967;50.718;7.050;2023-04-06T16:07:55;100773.84;;;9.90;82.55
50087;BME280;35967;50.718;7.050;2023-04-06T16:17:58;100771.50;;;9.77;88.03
50087;BME280;35967;50.718;7.050;2023-04-06T16:28:05;100770.81;;;9.68;90.07
50087;BME280;35967;50.718;7.050;2023-04-06T16:38:08;100769.00;;;9.73;90.70
50087;BME280;35967;50.718;7.050;2023-04-06T16:48:13;100768.56;;;9.46;91.55
50087;BME280;35967;50.718;7.050;2023-04-06T16:58:17;100765.38;;;9.30;93.29
50087;BME280;35967;50.718;7.050;2023-04-06T17:08:21;100770.63;;;9.24;93.25
50087;BME280;35967;50.718;7.050;2023-04-06T17:18:24;100781.50;;;9.41;94.02
50087;BME280;35967;50.718;7.050;2023-04-06T17:28:29;100775.03;;;9.15;96.46
50087;BME280;35967;50.718;7.050;2023-04-06T17:38:32;100785.50;;;9.00;95.47
50087;BME280;35967;50.718;7.050;2023-04-06T17:48:37;100779.41;;;9.06;96.67
50087;BME280;35967;50.718;7.050;2023-04-06T17:58:40;100771.81;;;9.01;98.18
50087;BME280;35967;50.718;7.050;2023-04-06T18:08:45;100782.13;;;8.96;97.93
50087;BME280;35967;50.718;7.050;2023-04-06T18:18:48;100777.97;;;8.89;98.70
50087;BME280;35967;50.718;7.050;2023-04-06T18:28:53;100773.81;;;8.79;98.53
50087;BME280;35967;50.718;7.050;2023-04-06T18:38:56;100768.88;;;8.63;98.18
50087;BME280;35967;50.718;7.050;2023-04-06T18:49:03;100762.06;;;8.59;99.24
50087;BME280;35967;50.718;7.050;2023-04-06T18:59:07;100765.50;;;8.58;99.09
50087;BME280;35967;50.718;7.050;2023-04-06T19:09:12;100762.28;;;8.37;98.09
50087;BME280;35967;50.718;7.050;2023-04-06T19:19:16;100759.69;;;8.42;100.00
50087;BME280;35967;50.718;7.050;2023-04-06T19:29:21;100740.97;;;8.34;100.00
50087;BME280;35967;50.718;7.050;2023-04-06T19:39:24;100734.75;;;8.55;100.00
50087;BME280;35967;50.718;7.050;2023-04-06T19:49:29;100728.31;;;8.18;100.00
50087;BME280;35967;50.718;7.050;2023-04-06T19:59:32;100722.22;;;8.29;100.00
50087;BME280;35967;50.718;7.050;2023-04-06T20:09:37;100713.78;;;8.17;100.00
50087;BME280;35967;50.718;7.050;2023-04-06T20:19:40;100712.88;;;8.23;100.00
50087;BME280;35967;50.718;7.050;2023-04-06T20:29:45;100716.44;;;8.11;100.00
50087;BME280;35967;50.718;7.050;2023-04-06T20:39:49;100708.63;;;8.19;100.00
50087;BME280;35967;50.718;7.050;2023-04-06T20:49:54;100701.03;;;8.11;100.00
50087;BME280;35967;50.718;7.050;2023-04-06T20:59:57;100685.56;;;8.19;100.00
50087;BME280;35967;50.718;7.050;2023-04-06T21:10:02;100682.91;;;8.27;100.00
50087;BME280;35967;50.718;7.050;2023-04-06T21:20:06;100678.78;;;8.13;100.00
50087;BME280;35967;50.718;7.050;2023-04-06T21:30:12;100675.31;;;8.17;100.00
50087;BME280;35967;50.718;7.050;2023-04-06T21:40:15;100664.22;;;8.18;100.00
50087;BME280;35967;50.718;7.050;2023-04-06T21:50:21;100647.97;;;8.18;100.00
50087;BME280;35967;50.718;7.050;2023-04-06T22:00:24;100639.38;;;8.22;100.00
50087;BME280;35967;50.718;7.050;2023-04-06T22:10:46;100631.59;;;8.28;100.00
50087;BME280;35967;50.718;7.050;2023-04-06T22:20:49;100621.28;;;8.33;100.00
50087;BME280;35967;50.718;7.050;2023-04-06T22:30:54;100620.28;;;8.43;100.00
50087;BME280;35967;50.718;7.050;2023-04-06T22:40:57;100616.91;;;8.41;100.00
50087;BME280;35967;50.718;7.050;2023-04-06T22:51:04;100613.50;;;8.39;100.00
50087;BME280;35967;50.718;7.050;2023-04-06T23:01:07;100605.75;;;8.47;100.00
50087;BME280;35967;50.718;7.050;2023-04-06T23:11:12;100597.16;;;8.49;100.00
50087;BME280;35967;50.718;7.050;2023-04-06T23:45:29;100586.06;;;8.47;100.00
50087;BME280;35967;50.718;7.050;2023-04-06T23:55:33;100583.47;;;8.46;100.00
